Time;durP1;ratioP1;P1;durP2;ratioP2;P2;SDS_P1;SDS_P2;PMS_P1;PMS_P2;Temp;Humidity;BMP_temperature;BMP_pressure;BME280_temperature;BME280_humidity;BME280_pressure;Samples;Min_cycle;Max_cycle;Signal;HPM_P1;HPM_P2
2023/02/09 00:01:37;;;;;;;82.78;12.73;;;-1.20;33.60;;;;;;5018982;28;20564;-82
2023/02/09 00:04:06;;;;;;;81.90;15.65;;;-1.10;34.40;;;;;;5002725;28;20161;-83
2023/02/09 00:06:35;;;;;;;76.25;13.27;;;-1.20;30.40;;;;;;5018527;28;20202;-83
2023/02/09 00:09:03;;;;;;;77.03;13.25;;;-1.20;29.50;;;;;;5020170;28;20247;-82
2023/02/09 00:14:19;;;;;;;76.80;11.80;;;-1.30;29.60;;;;;;5020166;28;20228;-83
2023/02/09 00:16:50;;;;;;;81.05;12.82;;;-1.30;30.00;;;;;;5019577;28;20576;-82
2023/02/09 00:19:28;;;;;;;76.57;12.60;;;-1.40;33.30;;;;;;5002478;28;20265;-82
2023/02/09 00:22:00;;;;;;;77.28;12.95;;;-1.40;32.80;;;;;;5019998;28;20185;-82
2023/02/09 00:24:26;;;;;;;77.40;12.85;;;-1.40;36.10;;;;;;5020731;28;20197;-82
2023/02/09 00:26:52;;;;;;;79.40;12.80;;;-1.30;34.50;;;;;;5002269;28;20561;-82
2023/02/09 00:29:26;;;;;;;77.77;13.67;;;-1.20;28.30;;;;;;5018079;28;20189;-82
2023/02/09 00:31:52;;;;;;;76.60;12.20;;;-1.20;31.70;;;;;;5018835;28;20420;-82
2023/02/09 00:34:20;;;;;;;79.70;14.53;;;-1.20;33.80;;;;;;5017734;28;20185;-82
2023/02/09 00:36:46;;;;;;;74.60;11.40;;;-1.30;37.50;;;;;;5019258;28;20413;-82
2023/02/09 00:39:12;;;;;;;75.33;11.50;;;-1.30;35.10;;;;;;5018535;28;20691;-82
2023/02/09 00:44:23;;;;;;;75.15;12.20;;;-1.30;37.70;;;;;;5019184;28;20176;-82
2023/02/09 00:46:50;;;;;;;80.57;12.90;;;-1.30;38.20;;;;;;5016986;28;20284;-83
2023/02/09 00:49:23;;;;;;;74.13;12.15;;;-1.30;40.20;;;;;;5018221;28;20188;-82
2023/02/09 00:51:51;;;;;;;76.95;12.32;;;-1.20;34.60;;;;;;5018416;28;20217;-82
2023/02/09 00:54:20;;;;;;;79.82;12.98;;;-1.20;32.50;;;;;;5018883;28;20166;-82
2023/02/09 00:56:48;;;;;;;85.00;13.00;;;-1.30;33.80;;;;;;5019192;28;20589;-82
2023/02/09 00:59:16;;;;;;;76.75;11.77;;;-1.30;36.20;;;;;;5018919;28;20166;-82
2023/02/09 01:01:42;;;;;;;77.57;12.60;;;-1.40;37.10;;;;;;5000825;28;20628;-82
2023/02/09 01:04:08;;;;;;;82.03;12.82;;;-1.40;40.20;;;;;;5017291;28;20173;-82
2023/02/09 01:06:36;;;;;;;78.70;12.30;;;-1.50;40.90;;;;;;5018456;28;20189;-82
2023/02/09 01:09:02;;;;;;;75.25;11.45;;;-1.50;44.50;;;;;;5018257;28;20432;-82
2023/02/09 01:11:29;;;;;;;77.55;12.02;;;-1.50;43.30;;;;;;5018057;28;20186;-82
2023/02/09 01:13:58;;;;;;;79.95;13.00;;;-1.50;41.80;;;;;;5017863;28;20158;-82
2023/02/09 01:16:27;;;;;;;77.90;13.88;;;-1.50;42.20;;;;;;5018509;28;20582;-82
2023/02/09 01:18:53;;;;;;;80.95;14.27;;;-1.50;42.00;;;;;;5001027;28;20165;-82
2023/02/09 01:21:26;;;;;;;77.55;12.68;;;-1.50;37.60;;;;;;5018473;28;20245;-82
2023/02/09 01:23:52;;;;;;;80.28;13.68;;;-1.50;39.10;;;;;;5017182;28;20169;-82
2023/02/09 01:26:18;;;;;;;79.93;12.57;;;-1.40;39.00;;;;;;5120138;22;20572;-83
2023/02/09 01:28:50;;;;;;;74.40;11.68;;;-1.40;38.40;;;;;;5019102;28;20972;-83
2023/02/09 01:31:28;;;;;;;77.53;13.27;;;-1.30;37.40;;;;;;5083686;22;20264;-83
2023/02/09 01:33:59;;;;;;;77.53;12.10;;;-1.30;33.20;;;;;;5016889;28;20656;-83
2023/02/09 01:36:28;;;;;;;76.10;11.80;;;-1.30;33.00;;;;;;5018701;28;20151;-83
2023/02/09 01:38:56;;;;;;;76.43;12.32;;;-1.30;31.50;;;;;;5018211;28;20173;-83
2023/02/09 01:41:26;;;;;;;78.15;12.70;;;-1.30;31.40;;;;;;5018143;28;20181;-83
2023/02/09 01:44:01;;;;;;;79.18;12.98;;;-1.40;31.50;;;;;;5018272;28;20165;-83
2023/02/09 01:46:31;;;;;;;79.45;13.35;;;-1.40;33.30;;;;;;5018555;28;20224;-83
2023/02/09 01:49:25;;;;;;;80.38;12.75;;;-1.40;34.70;;;;;;5018549;28;20165;-83
2023/02/09 01:52:05;;;;;;;76.97;12.57;;;-1.40;36.10;;;;;;5016994;28;20182;-83
2023/02/09 01:55:00;;;;;;;82.55;13.63;;;-1.50;35.20;;;;;;5018203;28;20150;-83
2023/02/09 01:57:43;;;;;;;78.65;12.70;;;-1.50;34.60;;;;;;5017553;28;20561;-83
2023/02/09 02:00:17;;;;;;;76.95;12.52;;;-1.50;36.20;;;;;;5016591;28;20253;-83
2023/02/09 02:03:14;;;;;;;79.05;13.20;;;-1.60;38.40;;;;;;5018872;28;20186;-83
2023/02/09 02:05:51;;;;;;;76.68;13.65;;;-1.50;37.00;;;;;;4992049;28;20181;-83
2023/02/09 02:08:41;;;;;;;77.30;14.10;;;-1.50;38.80;;;;;;5017515;28;20154;-83
2023/02/09 02:11:08;;;;;;;79.47;12.55;;;-1.50;40.70;;;;;;5016154;28;20216;-83
2023/02/09 02:13:34;;;;;;;78.45;13.68;;;-1.60;38.30;;;;;;5017359;28;20158;-83
2023/02/09 02:16:24;;;;;;;78.13;13.73;;;-1.60;39.50;;;;;;4999764;28;20174;-83
2023/02/09 02:19:08;;;;;;;77.78;11.80;;;-1.70;42.20;;;;;;5017880;28;20154;-83
2023/02/09 02:21:55;;;;;;;74.20;12.27;;;-1.70;42.80;;;;;;5017217;28;20589;-83
2023/02/09 02:24:42;;;;;;;79.78;12.98;;;-1.70;45.10;;;;;;4999564;28;20241;-83
2023/02/09 02:27:17;;;;;;;78.18;13.43;;;-1.80;49.20;;;;;;5017289;28;20192;-82
2023/02/09 02:30:12;;;;;;;73.63;10.52;;;-1.80;51.40;;;;;;5017750;28;20232;-83
2023/02/09 02:32:56;;;;;;;74.72;11.43;;;-1.80;52.60;;;;;;5015766;28;20193;-83
2023/02/09 02:35:50;;;;;;;77.60;12.77;;;-1.70;50.50;;;;;;4999823;28;20165;-83
2023/02/09 02:38:38;;;;;;;80.07;12.55;;;-1.70;51.50;;;;;;4999518;28;20254;-83
2023/02/09 02:41:19;;;;;;;74.30;11.77;;;-1.80;51.50;;;;;;5016586;28;20193;-83
2023/02/09 02:43:59;;;;;;;75.55;11.85;;;-1.80;50.60;;;;;;4999403;28;20165;-83
2023/02/09 02:46:32;;;;;;;77.88;11.88;;;-1.80;52.20;;;;;;4999462;28;20557;-83
2023/02/09 02:49:16;;;;;;;77.40;12.80;;;-1.80;55.10;;;;;;5015668;28;20261;-82
2023/02/09 02:51:44;;;;;;;86.00;14.68;;;-1.70;52.60;;;;;;5017448;28;20189;-83
2023/02/09 02:54:32;;;;;;;76.85;12.85;;;-1.70;49.50;;;;;;5016608;28;20158;-83
2023/02/09 02:57:02;;;;;;;93.18;14.88;;;-1.60;47.50;;;;;;5017333;28;20154;-83
2023/02/09 02:59:32;;;;;;;78.55;12.90;;;-1.60;44.90;;;;;;5017089;28;20515;-83
2023/02/09 03:02:05;;;;;;;88.15;13.55;;;-1.60;44.50;;;;;;5001675;28;20272;-83
2023/02/09 03:04:45;;;;;;;81.85;13.60;;;-1.70;46.70;;;;;;5001328;28;20186;-83
2023/02/09 03:07:11;;;;;;;77.03;12.73;;;-1.70;47.80;;;;;;5020532;28;20207;-83
2023/02/09 03:09:46;;;;;;;82.97;15.40;;;-1.70;48.90;;;;;;5020631;28;20170;-83
2023/02/09 03:12:35;;;;;;;81.32;14.50;;;-1.70;48.10;;;;;;5018596;28;20191;-83
2023/02/09 03:15:22;;;;;;;78.97;14.30;;;-1.70;48.70;;;;;;5020419;28;20157;-83
2023/02/09 03:18:10;;;;;;;79.05;13.75;;;-1.60;47.90;;;;;;5019965;28;20590;-83
2023/02/09 03:20:50;;;;;;;80.72;15.07;;;-1.60;44.90;;;;;;5020134;28;20162;-83
2023/02/09 03:23:31;;;;;;;81.60;12.68;;;-1.60;43.90;;;;;;5020333;28;20204;-83
2023/02/09 03:26:00;;;;;;;80.57;13.77;;;-1.60;44.00;;;;;;5020140;28;20178;-83
2023/02/09 03:28:30;;;;;;;83.28;16.27;;;-1.60;46.10;;;;;;5002298;28;20220;-83
2023/02/09 03:30:58;;;;;;;77.60;12.68;;;-1.70;46.30;;;;;;5018459;28;20202;-83
2023/02/09 03:33:27;;;;;;;84.13;14.75;;;-1.70;48.10;;;;;;5018929;28;20169;-83
2023/02/09 03:35:58;;;;;;;79.60;13.02;;;-1.60;48.90;;;;;;5019404;28;20154;-83
2023/02/09 03:38:23;;;;;;;79.10;13.40;;;-1.70;47.90;;;;;;5019725;28;20154;-83
2023/02/09 03:40:49;;;;;;;78.23;12.60;;;-1.60;48.70;;;;;;5091325;22;20195;-84
2023/02/09 03:43:14;;;;;;;82.80;13.60;;;-1.70;45.70;;;;;;5033666;28;20201;-85
2023/02/09 03:45:40;;;;;;;84.57;14.13;;;-1.70;50.00;;;;;;5018380;28;20170;-85
2023/02/09 03:48:06;;;;;;;79.97;13.87;;;-1.70;49.40;;;;;;5035130;28;20169;-85
2023/02/09 03:50:33;;;;;;;82.07;13.55;;;-1.70;48.40;;;;;;5035526;28;20174;-85
2023/02/09 03:53:01;;;;;;;80.85;14.18;;;-1.70;50.70;;;;;;5035124;28;20158;-85
2023/02/09 03:55:27;;;;;;;85.55;16.45;;;-1.70;49.90;;;;;;5035169;28;20675;-85
2023/02/09 03:57:52;;;;;;;85.47;13.32;;;-1.70;51.80;;;;;;5035163;28;20226;-85
2023/02/09 04:00:18;;;;;;;78.60;13.90;;;-1.70;51.20;;;;;;5034417;28;20174;-85
2023/02/09 04:02:45;;;;;;;81.18;12.50;;;-1.70;52.00;;;;;;5034277;28;20190;-85
2023/02/09 04:05:11;;;;;;;76.75;12.85;;;-1.70;50.60;;;;;;5035189;28;20166;-85
2023/02/09 04:07:37;;;;;;;79.38;13.75;;;-1.70;53.00;;;;;;5035216;28;20194;-85
2023/02/09 04:10:04;;;;;;;79.40;14.23;;;-1.80;53.30;;;;;;5034881;28;20165;-85
2023/02/09 04:12:30;;;;;;;77.57;13.02;;;-1.80;53.30;;;;;;5034110;28;20601;-85
2023/02/09 04:14:55;;;;;;;84.07;14.37;;;-1.70;52.40;;;;;;5033504;28;20185;-85
2023/02/09 04:17:21;;;;;;;78.93;13.30;;;-1.70;52.30;;;;;;5034551;28;20174;-85
2023/02/09 04:19:47;;;;;;;81.63;14.37;;;-1.80;52.50;;;;;;5034773;28;20178;-85
2023/02/09 04:22:12;;;;;;;83.30;14.03;;;-1.80;54.30;;;;;;5034255;28;20507;-85
2023/02/09 04:24:38;;;;;;;80.87;13.17;;;-1.80;53.30;;;;;;5034335;28;20166;-85
2023/02/09 04:27:04;;;;;;;79.10;13.67;;;-1.90;55.60;;;;;;5034952;28;20197;-85
2023/02/09 04:29:29;;;;;;;81.67;15.20;;;-2.00;57.80;;;;;;5033818;28;20416;-85
2023/02/09 04:31:55;;;;;;;79.37;14.50;;;-2.00;60.00;;;;;;5034262;28;20186;-85
2023/02/09 04:34:22;;;;;;;82.77;13.10;;;-2.00;61.80;;;;;;5033181;28;20203;-85
2023/02/09 04:36:49;;;;;;;78.88;14.40;;;-2.00;63.10;;;;;;5033228;28;20221;-85
2023/02/09 04:39:14;;;;;;;81.45;14.35;;;-2.00;64.40;;;;;;5034508;28;20177;-85
2023/02/09 04:41:40;;;;;;;79.17;12.97;;;-2.00;64.20;;;;;;5033676;28;20260;-86
2023/02/09 04:44:06;;;;;;;78.80;14.07;;;-2.00;65.30;;;;;;5035205;28;20561;-85
2023/02/09 04:46:32;;;;;;;83.60;13.80;;;-2.10;68.20;;;;;;5034661;28;20198;-85
2023/02/09 04:48:57;;;;;;;80.47;13.73;;;-2.10;70.00;;;;;;5032683;28;20659;-85
2023/02/09 04:51:23;;;;;;;81.53;14.57;;;-2.10;71.40;;;;;;5034020;28;20193;-85
2023/02/09 04:53:49;;;;;;;82.30;14.23;;;-2.10;72.20;;;;;;5016974;28;20200;-85
2023/02/09 04:56:15;;;;;;;79.53;13.43;;;-2.10;73.60;;;;;;5034336;28;20415;-85
2023/02/09 05:01:27;;;;;;;77.07;11.98;;;-2.10;74.50;;;;;;5033688;28;20201;-85
2023/02/09 05:03:52;;;;;;;80.82;14.23;;;-2.10;77.50;;;;;;5033956;28;20170;-85
2023/02/09 05:06:18;;;;;;;89.57;13.83;;;-2.10;78.10;;;;;;5033916;28;20192;-85
2023/02/09 05:08:44;;;;;;;81.17;14.47;;;-2.10;78.40;;;;;;5033865;28;20186;-85
2023/02/09 05:11:11;;;;;;;82.35;14.73;;;-2.10;80.30;;;;;;5034190;28;20428;-85
2023/02/09 05:13:37;;;;;;;78.75;12.80;;;-2.10;80.70;;;;;;5034308;28;20162;-85
2023/02/09 05:16:13;;;;;;;78.45;13.90;;;-2.10;79.40;;;;;;5034455;28;20205;-85
2023/02/09 05:18:38;;;;;;;85.80;14.35;;;-2.10;78.50;;;;;;5034312;28;20154;-85
2023/02/09 05:21:04;;;;;;;78.90;14.00;;;-2.20;77.80;;;;;;5032999;28;20657;-85
2023/02/09 05:23:30;;;;;;;81.37;16.23;;;-2.10;77.90;;;;;;5033752;28;20401;-85
2023/02/09 05:25:56;;;;;;;85.40;16.37;;;-2.10;75.50;;;;;;5033055;28;20845;-85
2023/02/09 05:28:23;;;;;;;81.07;14.30;;;-2.20;75.20;;;;;;5016092;28;20181;-85
2023/02/09 05:30:52;;;;;;;76.47;13.05;;;-2.20;76.00;;;;;;5032998;28;20182;-85
2023/02/09 05:33:23;;;;;;;80.57;14.15;;;-2.20;77.00;;;;;;5033129;28;20154;-85
2023/02/09 05:35:54;;;;;;;81.82;15.57;;;-2.30;77.20;;;;;;5033093;28;20178;-85
2023/02/09 05:38:20;;;;;;;79.40;14.20;;;-2.20;76.30;;;;;;5033608;28;20143;-85
2023/02/09 05:40:46;;;;;;;80.80;13.73;;;-2.20;75.50;;;;;;5033157;28;20243;-85
2023/02/09 05:43:12;;;;;;;82.15;15.05;;;-2.20;76.20;;;;;;5033365;28;20428;-85
2023/02/09 05:45:38;;;;;;;79.47;14.33;;;-2.20;77.50;;;;;;5033681;28;20224;-85
2023/02/09 05:48:04;;;;;;;81.93;14.73;;;-2.20;74.40;;;;;;5033277;28;20221;-85
2023/02/09 05:50:30;;;;;;;82.18;14.02;;;-2.20;75.40;;;;;;5033283;28;20246;-85
2023/02/09 05:52:59;;;;;;;81.80;15.43;;;-2.20;75.20;;;;;;5031967;28;20688;-86
2023/02/09 05:55:25;;;;;;;84.70;13.73;;;-2.30;73.80;;;;;;5016073;28;20166;-85
2023/02/09 05:57:51;;;;;;;88.15;15.25;;;-2.20;76.10;;;;;;5032607;28;20184;-85
2023/02/09 06:00:17;;;;;;;80.10;14.83;;;-2.20;76.40;;;;;;5032173;28;20158;-85
2023/02/09 06:02:43;;;;;;;80.97;13.38;;;-2.30;74.10;;;;;;5032674;28;20421;-85
2023/02/09 06:05:09;;;;;;;82.97;15.50;;;-2.20;75.10;;;;;;5032718;28;20668;-85
2023/02/09 06:07:35;;;;;;;85.13;16.30;;;-2.30;75.90;;;;;;5031621;28;20471;-85
2023/02/09 06:10:00;;;;;;;84.43;14.07;;;-2.30;74.90;;;;;;5033103;28;20397;-85
2023/02/09 06:12:26;;;;;;;87.60;15.77;;;-2.30;72.80;;;;;;5032720;28;20409;-85
2023/02/09 06:14:52;;;;;;;90.00;15.00;;;-2.30;73.50;;;;;;5032440;28;20157;-85
2023/02/09 06:17:17;;;;;;;78.10;14.77;;;-2.30;74.30;;;;;;5032679;28;20170;-85
2023/02/09 06:19:43;;;;;;;82.83;15.87;;;-2.30;75.30;;;;;;5032770;28;20209;-85
2023/02/09 06:22:08;;;;;;;86.10;15.90;;;-2.30;77.90;;;;;;5032647;28;20201;-85
2023/02/09 06:24:34;;;;;;;82.87;17.03;;;-2.30;75.90;;;;;;5031844;28;20169;-85
2023/02/09 06:27:00;;;;;;;82.33;13.83;;;-2.30;75.00;;;;;;5032335;28;20257;-85
2023/02/09 06:29:26;;;;;;;81.50;15.70;;;-2.30;75.00;;;;;;5033077;28;20169;-85
2023/02/09 06:31:51;;;;;;;80.53;14.93;;;-2.30;75.30;;;;;;5032343;28;20182;-85
2023/02/09 06:34:17;;;;;;;84.27;15.17;;;-2.30;75.10;;;;;;5032501;28;20409;-85
2023/02/09 06:36:43;;;;;;;85.07;15.13;;;-2.30;78.90;;;;;;5032514;28;20200;-85
2023/02/09 06:39:10;;;;;;;86.43;14.33;;;-2.30;79.60;;;;;;5032910;28;20169;-85
2023/02/09 06:41:36;;;;;;;87.45;15.60;;;-2.30;78.50;;;;;;5033074;28;20239;-85
2023/02/09 06:44:02;;;;;;;89.05;18.15;;;-2.30;78.90;;;;;;5033694;28;20215;-85
2023/02/09 06:46:27;;;;;;;85.35;15.05;;;-2.30;81.00;;;;;;5033121;28;20194;-85
2023/02/09 06:48:59;;;;;;;82.87;15.20;;;-2.40;80.70;;;;;;5032568;28;20166;-85
2023/02/09 06:51:25;;;;;;;84.68;15.90;;;-2.40;84.10;;;;;;5032160;28;20416;-85
2023/02/09 06:53:50;;;;;;;86.70;18.43;;;-2.30;84.70;;;;;;5032578;28;20205;-85
2023/02/09 06:56:16;;;;;;;86.93;17.40;;;-2.30;82.70;;;;;;5032125;28;20166;-85
2023/02/09 06:58:45;;;;;;;89.87;16.67;;;-2.30;84.20;;;;;;5032032;28;20273;-85
2023/02/09 07:01:14;;;;;;;87.57;16.70;;;-2.30;83.80;;;;;;5031080;28;20221;-85
2023/02/09 07:03:43;;;;;;;83.05;16.95;;;-2.40;87.00;;;;;;5014914;28;20181;-85
2023/02/09 07:06:15;;;;;;;91.50;18.50;;;-2.40;89.60;;;;;;5031988;28;20220;-85
2023/02/09 07:08:41;;;;;;;90.05;19.02;;;-2.40;91.90;;;;;;5032347;28;20151;-84
2023/02/09 07:11:12;;;;;;;86.10;17.65;;;-2.40;93.40;;;;;;5033454;28;20186;-84
2023/02/09 07:13:38;;;;;;;90.15;18.70;;;-2.40;93.60;;;;;;5034876;28;20218;-84
2023/02/09 07:16:08;;;;;;;86.00;18.40;;;-2.40;95.50;;;;;;5034457;28;20172;-84
2023/02/09 07:18:35;;;;;;;87.72;19.05;;;-2.30;95.40;;;;;;5034810;28;20150;-84
2023/02/09 07:21:06;;;;;;;88.88;17.77;;;-2.30;94.90;;;;;;5033935;28;20189;-84
2023/02/09 07:23:32;;;;;;;86.63;18.52;;;-2.20;95.80;;;;;;5035053;28;20236;-84
2023/02/09 07:26:06;;;;;;;83.60;17.10;;;-2.10;95.70;;;;;;5033529;28;20173;-84
2023/02/09 07:28:32;;;;;;;85.97;18.02;;;-2.10;93.70;;;;;;5033861;28;20392;-84
2023/02/09 07:31:03;;;;;;;96.47;19.70;;;-2.10;94.00;;;;;;5032742;28;20182;-85
2023/02/09 07:33:29;;;;;;;83.65;17.10;;;-2.10;93.60;;;;;;5033177;28;20178;-84
2023/02/09 07:35:55;;;;;;;86.13;17.10;;;-2.10;94.60;;;;;;5033611;28;20162;-85
2023/02/09 07:38:21;;;;;;;89.60;19.13;;;-2.00;94.90;;;;;;5033442;28;20465;-85
2023/02/09 07:40:46;;;;;;;86.07;17.53;;;-2.00;95.40;;;;;;5032453;28;20197;-84
2023/02/09 07:43:15;;;;;;;83.20;18.87;;;-2.00;95.40;;;;;;5032967;28;20237;-85
2023/02/09 07:45:41;;;;;;;88.03;18.98;;;-2.00;96.30;;;;;;5033441;28;20174;-84
2023/02/09 07:48:09;;;;;;;89.47;19.10;;;-1.90;96.70;;;;;;5033537;28;20273;-84
2023/02/09 07:50:35;;;;;;;89.18;17.67;;;-1.80;96.90;;;;;;5016254;28;20177;-84
2023/02/09 07:53:00;;;;;;;91.37;18.37;;;-1.70;96.10;;;;;;5033635;28;20177;-83
2023/02/09 07:55:26;;;;;;;87.00;17.93;;;-1.70;93.50;;;;;;5034231;28;20158;-84
2023/02/09 07:57:52;;;;;;;87.63;18.37;;;-1.60;92.90;;;;;;5032925;28;20177;-83
2023/02/09 08:00:19;;;;;;;87.63;20.13;;;-1.60;91.90;;;;;;5033841;28;20405;-84
2023/02/09 08:02:45;;;;;;;86.32;18.67;;;-1.60;91.40;;;;;;5033755;28;20189;-84
2023/02/09 08:05:21;;;;;;;85.80;18.40;;;-1.50;90.50;;;;;;5017004;28;20181;-83
2023/02/09 08:07:47;;;;;;;92.68;20.05;;;-1.50;89.40;;;;;;5033703;28;20181;-83
2023/02/09 08:10:14;;;;;;;87.67;18.60;;;-1.40;88.60;;;;;;5033935;28;20535;-83
2023/02/09 08:13:01;;;;;;;88.22;18.48;;;-1.40;86.80;;;;;;5033850;28;20948;-84
2023/02/09 08:15:53;;;;;;;85.03;19.52;;;-1.30;88.60;;;;;;5033399;28;20188;-83
2023/02/09 08:18:26;;;;;;;94.10;21.70;;;-1.20;85.50;;;;;;5032128;28;20182;-83
2023/02/09 08:20:53;;;;;;;89.13;20.33;;;-1.20;85.20;;;;;;5033181;28;20190;-83
2023/02/09 08:23:25;;;;;;;98.35;19.23;;;-1.10;84.20;;;;;;5033434;28;20173;-83
2023/02/09 08:25:51;;;;;;;87.07;19.65;;;-1.10;83.10;;;;;;5033367;28;20162;-83
2023/02/09 08:28:21;;;;;;;90.03;19.30;;;-1.00;80.30;;;;;;5033709;28;20172;-83
2023/02/09 08:30:48;;;;;;;86.45;18.33;;;-0.90;76.10;;;;;;5033567;28;20182;-83
2023/02/09 08:33:14;;;;;;;90.78;17.67;;;-0.90;69.30;;;;;;5033273;28;20165;-83
2023/02/09 08:35:40;;;;;;;88.32;18.05;;;-0.80;68.70;;;;;;5015396;28;20181;-82
2023/02/09 08:38:06;;;;;;;85.45;17.20;;;-0.70;66.40;;;;;;5033252;28;20170;-83
2023/02/09 08:40:35;;;;;;;86.83;18.33;;;-0.70;59.10;;;;;;5033309;28;20172;-83
2023/02/09 08:43:01;;;;;;;89.90;15.90;;;-0.70;53.20;;;;;;5033501;28;20242;-83
2023/02/09 08:45:27;;;;;;;87.53;19.37;;;-0.60;52.00;;;;;;5033435;28;20170;-82
2023/02/09 08:47:53;;;;;;;90.50;17.70;;;-0.60;50.60;;;;;;5014779;28;20216;-83
2023/02/09 08:50:18;;;;;;;91.60;17.33;;;-0.50;51.00;;;;;;5033042;28;20169;-82
2023/02/09 08:52:44;;;;;;;85.60;17.03;;;-0.40;50.90;;;;;;5032760;28;20182;-82
2023/02/09 08:55:10;;;;;;;92.20;19.80;;;-0.40;47.30;;;;;;5032779;28;20166;-82
2023/02/09 08:57:36;;;;;;;87.78;18.58;;;-0.40;40.70;;;;;;5032993;28;20170;-82
2023/02/09 09:00:04;;;;;;;88.70;17.55;;;-0.30;37.00;;;;;;5032737;28;20169;-82
2023/02/09 09:02:30;;;;;;;89.50;17.35;;;-0.20;32.70;;;;;;5031059;28;20192;-82
2023/02/09 09:04:56;;;;;;;88.00;18.20;;;-0.20;30.20;;;;;;5030865;28;20174;-83
2023/02/09 09:07:22;;;;;;;86.47;18.08;;;-0.10;28.80;;;;;;5032379;28;20448;-83
2023/02/09 09:09:48;;;;;;;93.63;19.27;;;-0.10;22.20;;;;;;5015008;28;20166;-83
2023/02/09 09:12:13;;;;;;;92.33;20.87;;;-0.10;21.20;;;;;;5031676;28;20200;-83
2023/02/09 09:14:40;;;;;;;87.70;18.87;;;-0.10;21.30;;;;;;5032592;28;20169;-83
2023/02/09 09:17:06;;;;;;;90.45;18.77;;;0.00;21.20;;;;;;5032566;28;20193;-83
2023/02/09 09:19:32;;;;;;;87.20;18.20;;;0.00;22.60;;;;;;5032193;28;20166;-83
2023/02/09 09:21:59;;;;;;;87.70;18.53;;;0.10;20.50;;;;;;5031776;28;20252;-83
2023/02/09 09:24:27;;;;;;;89.78;17.38;;;0.10;19.50;;;;;;5032264;28;20424;-83
2023/02/09 09:26:54;;;;;;;85.82;16.40;;;0.10;15.10;;;;;;5031894;28;20186;-83
2023/02/09 09:29:19;;;;;;;88.03;16.70;;;0.20;15.10;;;;;;5014123;28;20165;-83
2023/02/09 09:31:45;;;;;;;86.80;17.23;;;0.30;12.70;;;;;;5031571;28;20208;-83
2023/02/09 09:34:11;;;;;;;88.27;17.40;;;0.30;11.30;;;;;;5031771;28;20181;-83
2023/02/09 09:36:36;;;;;;;89.63;17.23;;;0.40;14.20;;;;;;5032129;28;20216;-83
2023/02/09 09:39:03;;;;;;;89.73;18.27;;;0.50;11.70;;;;;;5030554;28;20178;-83
2023/02/09 09:41:33;;;;;;;84.65;17.83;;;0.60;8.00;;;;;;5066417;22;20720;-83
2023/02/09 09:44:00;;;;;;;88.03;17.95;;;0.60;6.20;;;;;;5017350;28;20172;-83
2023/02/09 09:46:35;;;;;;;87.30;16.80;;;0.70;4.70;;;;;;5017700;28;20197;-83
2023/02/09 09:49:02;;;;;;;85.25;17.30;;;0.70;3.10;;;;;;5017933;28;20154;-84
2023/02/09 09:51:42;;;;;;;90.30;18.90;;;0.80;6.00;;;;;;5017963;28;20182;-83
2023/02/09 09:54:16;;;;;;;86.82;17.98;;;0.90;2.90;;;;;;5016930;28;20170;-83
2023/02/09 09:56:42;;;;;;;86.13;15.88;;;1.00;2.10;;;;;;5000897;28;20192;-83
2023/02/09 09:59:18;;;;;;;87.20;16.73;;;1.10;3.50;;;;;;5016219;28;20174;-83
2023/02/09 10:01:48;;;;;;;93.05;17.70;;;1.10;1.00;;;;;;5018062;28;20431;-83
2023/02/09 10:04:14;;;;;;;92.85;15.70;;;1.20;1.00;;;;;;5017612;28;20158;-83
2023/02/09 10:06:43;;;;;;;84.60;16.58;;;1.30;1.00;;;;;;5018401;28;20192;-83
2023/02/09 10:09:36;;;;;;;86.47;16.92;;;1.50;1.00;;;;;;5001481;28;20193;-84
2023/02/09 10:12:11;;;;;;;90.68;17.85;;;1.60;1.00;;;;;;5018224;28;20277;-83
2023/02/09 10:14:37;;;;;;;85.20;15.88;;;1.60;1.00;;;;;;5016761;28;20600;-83
2023/02/09 10:17:02;;;;;;;89.40;18.13;;;1.80;1.00;;;;;;5017481;28;20166;-83
2023/02/09 10:19:29;;;;;;;82.50;17.20;;;1.70;1.00;;;;;;5016169;28;20170;-83
2023/02/09 10:21:55;;;;;;;85.05;16.00;;;1.80;1.00;;;;;;5015655;28;20272;-85
2023/02/09 10:24:26;;;;;;;91.13;16.77;;;1.90;1.00;;;;;;5017406;28;20208;-84
2023/02/09 10:27:04;;;;;;;87.82;15.82;;;2.20;1.00;;;;;;5018030;28;20244;-85
2023/02/09 10:29:30;;;;;;;81.95;13.95;;;2.30;1.00;;;;;;5015898;28;20166;-83
2023/02/09 10:32:06;;;;;;;86.87;16.13;;;2.40;1.00;;;;;;5017243;28;20197;-83
2023/02/09 10:34:39;;;;;;;88.80;16.20;;;2.50;1.00;;;;;;5017425;28;20181;-84
2023/02/09 10:37:34;;;;;;;85.90;15.93;;;2.60;1.00;;;;;;5017549;28;20147;-83
2023/02/09 10:40:14;;;;;;;90.30;17.38;;;2.60;1.00;;;;;;5000053;28;20158;-84
2023/02/09 10:42:57;;;;;;;88.60;15.55;;;2.80;1.00;;;;;;5017405;28;20304;-84
2023/02/09 10:45:40;;;;;;;84.82;15.45;;;2.80;1.00;;;;;;4999915;28;20173;-83
2023/02/09 10:48:12;;;;;;;87.15;15.48;;;3.00;1.00;;;;;;5017255;28;20174;-83
2023/02/09 10:51:06;;;;;;;82.60;15.55;;;3.00;1.00;;;;;;5017691;28;20169;-84
2023/02/09 10:53:32;;;;;;;86.53;16.58;;;3.20;1.00;;;;;;5017671;28;20178;-84
2023/02/09 10:56:18;;;;;;;87.10;16.37;;;3.10;1.00;;;;;;5017528;28;20170;-84
2023/02/09 10:59:16;;;;;;;80.88;15.35;;;3.10;1.00;;;;;;5017143;28;20242;-84
2023/02/09 11:01:43;;;;;;;82.95;14.43;;;3.30;1.00;;;;;;5016657;28;20262;-84
2023/02/09 11:04:19;;;;;;;91.13;17.08;;;3.30;1.00;;;;;;5016628;28;20246;-84
2023/02/09 11:06:58;;;;;;;85.85;15.32;;;3.30;1.00;;;;;;4999847;28;20221;-83
2023/02/09 11:09:32;;;;;;;87.07;16.90;;;3.30;1.00;;;;;;4999647;28;20170;-84
2023/02/09 11:11:57;;;;;;;86.82;15.73;;;3.50;1.00;;;;;;5017020;28;20206;-84
2023/02/09 11:14:23;;;;;;;82.53;14.30;;;3.60;1.00;;;;;;5017007;28;20170;-84
2023/02/09 11:16:57;;;;;;;83.22;15.90;;;3.80;1.00;;;;;;5016711;28;20215;-83
2023/02/09 11:19:55;;;;;;;87.63;15.68;;;3.60;1.00;;;;;;5017211;28;20150;-83
2023/02/09 11:23:15;;;;;;;88.43;15.77;;;3.80;1.00;;;;;;5015509;28;20197;-84
2023/02/09 11:25:53;;;;;;;85.90;15.23;;;3.90;1.00;;;;;;4943333;29;20168;-83
2023/02/09 11:28:53;;;;;;;85.75;13.82;;;3.80;1.00;;;;;;5013903;28;20177;-83
2023/02/09 11:31:57;;;;;;;91.03;15.82;;;3.80;1.00;;;;;;5020369;28;20189;-83
2023/02/09 11:35:12;;;;;;;81.57;15.82;;;3.70;1.00;;;;;;5002799;28;20161;-83
2023/02/09 11:38:00;;;;;;;83.45;15.07;;;3.70;1.00;;;;;;5015845;28;20197;-83
2023/02/09 11:40:35;;;;;;;83.40;13.90;;;3.80;1.00;;;;;;5019838;28;20249;-83
2023/02/09 11:43:16;;;;;;;75.97;12.40;;;4.10;1.00;;;;;;5020604;28;20181;-83
2023/02/09 11:45:48;;;;;;;86.05;14.32;;;4.20;1.00;;;;;;5020715;28;20626;-83
2023/02/09 11:48:21;;;;;;;83.82;14.40;;;4.30;1.00;;;;;;5021131;28;20182;-83
2023/02/09 11:51:10;;;;;;;85.55;13.05;;;4.30;1.00;;;;;;5002443;28;20705;-83
2023/02/09 11:54:06;;;;;;;80.15;14.30;;;4.30;1.00;;;;;;5020595;28;20153;-83
2023/02/09 11:56:37;;;;;;;82.40;14.48;;;4.30;1.00;;;;;;5020062;28;20173;-83
2023/02/09 11:59:14;;;;;;;84.53;13.60;;;4.40;1.00;;;;;;5018849;28;20249;-83
2023/02/09 12:01:49;;;;;;;86.15;13.85;;;4.50;1.00;;;;;;5019313;28;20178;-83
2023/02/09 12:04:44;;;;;;;85.10;15.25;;;4.40;1.00;;;;;;5019680;28;20157;-83
2023/02/09 12:07:29;;;;;;;86.55;13.07;;;4.50;1.00;;;;;;5020114;28;20225;-83
2023/02/09 12:10:09;;;;;;;82.80;13.65;;;4.50;1.00;;;;;;5019923;28;20212;-83
2023/02/09 12:13:10;;;;;;;79.93;12.35;;;4.50;1.00;;;;;;5020006;28;20243;-83
2023/02/09 12:15:55;;;;;;;79.57;12.23;;;4.80;1.00;;;;;;5019907;28;20150;-84
2023/02/09 12:18:25;;;;;;;77.43;12.20;;;4.60;1.00;;;;;;5019459;28;20200;-83
2023/02/09 12:20:54;;;;;;;84.85;14.98;;;4.50;1.00;;;;;;5001729;28;20213;-83
2023/02/09 12:23:26;;;;;;;82.13;12.48;;;4.40;1.00;;;;;;5019599;28;20237;-84
2023/02/09 12:25:58;;;;;;;79.90;13.05;;;4.60;1.00;;;;;;5020151;28;20522;-83
2023/02/09 12:28:30;;;;;;;80.95;13.77;;;4.80;1.00;;;;;;5019292;28;20158;-83
2023/02/09 12:31:06;;;;;;;79.55;13.98;;;5.00;1.00;;;;;;5019632;28;20178;-83
2023/02/09 12:33:40;;;;;;;82.47;12.80;;;5.10;1.00;;;;;;5019616;28;20157;-83
2023/02/09 12:36:09;;;;;;;80.65;14.52;;;5.10;1.00;;;;;;5018300;28;20154;-83
2023/02/09 12:38:50;;;;;;;83.97;14.52;;;5.20;1.00;;;;;;5018233;28;20657;-84
2023/02/09 12:41:23;;;;;;;78.60;12.48;;;5.00;1.00;;;;;;5019631;28;20193;-83
2023/02/09 12:43:49;;;;;;;81.57;13.65;;;5.00;1.00;;;;;;5018320;28;20205;-84
2023/02/09 12:46:17;;;;;;;80.30;13.57;;;4.90;1.00;;;;;;5018902;28;20178;-83
2023/02/09 12:48:49;;;;;;;84.55;14.40;;;4.90;1.00;;;;;;5017815;28;20166;-83
2023/02/09 12:51:39;;;;;;;81.47;14.20;;;5.10;1.00;;;;;;5017598;28;20190;-83
2023/02/09 12:54:36;;;;;;;83.13;14.52;;;5.20;1.00;;;;;;5018508;28;20637;-84
2023/02/09 12:57:14;;;;;;;79.15;15.15;;;5.20;1.00;;;;;;5020027;28;20199;-84
2023/02/09 12:59:48;;;;;;;80.82;15.10;;;5.20;1.00;;;;;;5019491;28;20166;-84
2023/02/09 13:02:22;;;;;;;81.40;15.75;;;5.20;1.00;;;;;;5017656;28;20189;-83
2023/02/09 13:05:19;;;;;;;76.97;13.57;;;5.30;1.00;;;;;;5020054;28;20156;-83